KEMP/EMP METAR and TAF weather

Enter ICAO airport designator
Station Type Date Time Source
KEMP METAR 2021/07/29 17:53 UTC NOAA

KEMP 291753Z AUTO 23006KT 10SM CLR 36/22 A3008 RMK AO2 SLP172 T03560217 10361 20239 58003


Station Type Date Time Source
KEMP Decoded METAR 2021/07/29 17:53 UTC NOAA

EMPORIA MUNICIPAL AIRPORT, KS, United States (KEMP) 38-20N 96-12W 367M
Jul 29, 2021 - 01:53 PM EDT / 2021.07.29 1753 UTC
Wind: from the SW (230 degrees) at 7 MPH (6 KT):0
Visibility: 10 mile(s):0
Sky conditions: clear
Temperature: 96.1 F (35.6 C)
Heat index: 103.6 F (39.8 C):1
Dew Point: 71.1 F (21.7 C)
Relative Humidity: 44%
Pressure (altimeter): 30.08 in. Hg (1018 hPa)
Pressure tendency: 0.01 inches (0.3 hPa) lower than three hours ago
ob: KEMP 291753Z AUTO 23006KT 10SM CLR 36/22 A3008 RMK AO2 SLP172 T03560217 10361 20239 58003
cycle: 18

Station Type Date Time Source
KEMP TAF UTC NOAA

Error!

Example: see airport list